Time;durP1;ratioP1;P1;durP2;ratioP2;P2;SDS_P1;SDS_P2;PMS_P1;PMS_P2;Temp;Humidity;BMP_temperature;BMP_pressure;BME280_temperature;BME280_humidity;BME280_pressure;Samples;Min_cycle;Max_cycle;Signal;HPM_P1;HPM_P2
2023/11/18 00:01:25;;;;;;;0.10;0.10;;;;;;;12.71;31.36;98852.69;5069340;27;20756;-69
2023/11/18 00:03:53;;;;;;;0.10;0.00;;;;;;;12.70;32.55;98849.25;5068506;27;20407;-70
2023/11/18 00:06:23;;;;;;;1.00;0.20;;;;;;;12.60;33.45;98845.91;5074562;27;20031;-65
2023/11/18 00:08:52;;;;;;;0.22;0.13;;;;;;;12.56;33.60;98847.16;5077512;28;20733;-68
2023/11/18 00:11:19;;;;;;;0.28;0.10;;;;;;;12.55;33.36;98842.94;5060969;28;20361;-68
2023/11/18 00:13:47;;;;;;;0.00;0.00;;;;;;;12.75;33.44;98843.56;5074510;27;20036;-68
2023/11/18 00:16:16;;;;;;;0.10;0.10;;;;;;;12.61;36.17;98861.44;5086238;28;20027;-66
2023/11/18 00:18:42;;;;;;;0.68;0.20;;;;;;;12.43;36.06;98850.16;5075573;27;20031;-70
2023/11/18 00:21:10;;;;;;;0.20;0.17;;;;;;;12.18;37.61;98844.75;5078255;27;20066;-68
2023/11/18 00:23:35;;;;;;;0.22;0.10;;;;;;;12.27;35.38;98850.88;5068207;28;20101;-71
2023/11/18 00:26:02;;;;;;;0.10;0.10;;;;;;;12.27;35.31;98835.22;5059133;28;20533;-66
2023/11/18 00:28:27;;;;;;;0.00;0.00;;;;;;;12.44;36.29;98838.78;5080853;28;20023;-69
2023/11/18 00:30:56;;;;;;;0.30;0.15;;;;;;;12.43;37.89;98835.38;5084956;28;20031;-67
2023/11/18 00:33:21;;;;;;;0.15;0.10;;;;;;;12.23;35.37;98792.16;5066637;28;20097;-67
2023/11/18 00:35:49;;;;;;;0.32;0.10;;;;;;;12.52;35.04;98830.19;5066834;28;21186;-69
2023/11/18 00:38:17;;;;;;;1.13;0.10;;;;;;;12.48;33.95;98817.47;5074688;28;20026;-68
2023/11/18 00:40:45;;;;;;;0.25;0.08;;;;;;;12.54;33.63;98813.44;5055475;28;20030;-68
2023/11/18 00:43:11;;;;;;;0.10;0.03;;;;;;;12.66;34.61;98820.03;5062422;28;20050;-66
2023/11/18 00:45:36;;;;;;;0.20;0.10;;;;;;;12.67;33.94;98828.69;5056092;28;20933;-67
2023/11/18 00:48:01;;;;;;;0.57;0.10;;;;;;;12.80;32.87;98820.47;5072775;28;20818;-67
2023/11/18 00:50:27;;;;;;;1.02;0.30;;;;;;;12.80;34.11;98829.09;5056688;28;20027;-66
2023/11/18 00:52:52;;;;;;;0.93;0.20;;;;;;;12.68;33.30;98828.50;5067248;28;20048;-70
2023/11/18 00:55:18;;;;;;;0.50;0.15;;;;;;;12.68;31.10;98822.47;5069857;28;20039;-67
2023/11/18 00:57:46;;;;;;;0.20;0.10;;;;;;;12.82;30.72;98834.16;5052869;28;20039;-69
2023/11/18 01:00:18;;;;;;;0.68;0.10;;;;;;;12.84;34.24;98830.41;5056948;28;20681;-68
2023/11/18 01:02:44;;;;;;;0.60;0.10;;;;;;;12.92;34.21;98829.63;5072389;28;20156;-70
2023/11/18 01:05:10;;;;;;;0.25;0.10;;;;;;;12.93;30.76;98831.28;5056851;28;21273;-68
2023/11/18 01:07:37;;;;;;;0.40;0.10;;;;;;;13.02;34.72;98834.78;5095450;27;20073;-68
2023/11/18 01:10:06;;;;;;;0.03;0.03;;;;;;;13.03;27.20;98842.44;5071490;28;20213;-67
2023/11/18 01:12:31;;;;;;;0.20;0.00;;;;;;;13.21;30.81;98842.38;5055627;28;20807;-68
2023/11/18 01:14:56;;;;;;;0.25;0.08;;;;;;;13.01;26.58;98802.63;5056591;28;20035;-67
2023/11/18 01:17:22;;;;;;;0.40;0.10;;;;;;;13.38;26.18;98829.41;5069064;28;21926;-70
2023/11/18 01:19:47;;;;;;;1.40;0.10;;;;;;;13.28;30.07;98842.56;5072990;28;20138;-71
2023/11/18 01:22:13;;;;;;;0.73;0.20;;;;;;;13.05;35.42;98834.44;5058632;28;20043;-69
2023/11/18 01:24:39;;;;;;;1.02;0.20;;;;;;;13.03;34.28;98865.09;5075723;27;20040;-67
2023/11/18 01:27:04;;;;;;;0.30;0.10;;;;;;;13.04;32.22;98844.06;5054161;28;20049;-69
2023/11/18 01:29:30;;;;;;;0.32;0.10;;;;;;;12.85;32.53;98829.47;5048861;28;20074;-69
2023/11/18 01:31:58;;;;;;;0.22;0.13;;;;;;;13.27;30.05;98859.22;5071114;28;20024;-72
2023/11/18 01:34:27;;;;;;;0.40;0.10;;;;;;;13.26;29.65;98839.28;5053612;28;20031;-68
2023/11/18 01:36:53;;;;;;;0.05;0.00;;;;;;;13.34;28.17;98849.78;5054223;28;20116;-69
2023/11/18 01:39:21;;;;;;;1.35;0.20;;;;;;;13.43;27.71;98846.28;5070524;28;21077;-69
2023/11/18 01:41:46;;;;;;;0.08;0.08;;;;;;;13.48;27.86;98843.16;5067956;28;20066;-66
2023/11/18 01:44:15;;;;;;;0.20;0.00;;;;;;;13.50;28.02;98843.81;5074476;28;20027;-69
2023/11/18 01:46:44;;;;;;;0.25;0.10;;;;;;;13.46;27.30;98850.34;5072563;28;20046;-69
2023/11/18 01:49:10;;;;;;;;;;;;;;;13.35;30.57;98854.06;5061699;28;20510;-67
2023/11/18 01:51:36;;;;;;;0.00;0.00;;;;;;;13.12;34.57;98843.28;5077470;28;19919;-67
2023/11/18 01:54:02;;;;;;;0.08;0.08;;;;;;;13.07;32.39;98869.88;5060665;28;20639;-68
2023/11/18 01:56:28;;;;;;;0.30;0.10;;;;;;;13.12;35.51;98858.16;5057161;28;20032;-69
2023/11/18 01:58:53;;;;;;;0.32;0.10;;;;;;;12.29;41.86;98875.81;5056090;28;20828;-67
2023/11/18 02:01:19;;;;;;;0.68;0.13;;;;;;;12.26;41.46;98889.13;5054250;28;20146;-66
2023/11/18 02:03:47;;;;;;;0.20;0.10;;;;;;;12.10;40.81;98897.63;5053082;28;20875;-67
2023/11/18 02:06:13;;;;;;;0.22;0.10;;;;;;;12.26;37.93;98898.75;5049462;28;20875;-70
2023/11/18 02:08:38;;;;;;;0.20;0.08;;;;;;;12.17;41.97;98910.06;5069803;28;20043;-67
2023/11/18 02:11:15;;;;;;;0.00;0.00;;;;;;;12.12;40.06;98910.53;5078785;28;20827;-68
2023/11/18 02:13:47;;;;;;;0.45;0.20;;;;;;;12.10;39.65;98923.72;5078227;28;20035;-70
2023/11/18 02:16:12;;;;;;;0.73;0.10;;;;;;;12.21;37.46;98919.22;5065829;28;20032;-68
2023/11/18 02:18:39;;;;;;;0.10;0.10;;;;;;;12.21;38.59;98919.22;5081218;28;20286;-70
2023/11/18 02:21:08;;;;;;;0.73;0.10;;;;;;;12.13;36.81;98919.16;5064113;28;20508;-67
2023/11/18 02:23:33;;;;;;;0.28;0.10;;;;;;;12.21;36.33;98932.25;5064657;28;20024;-66
2023/11/18 02:26:01;;;;;;;0.30;0.10;;;;;;;12.15;37.14;98932.88;5065211;28;20031;-69
2023/11/18 02:28:27;;;;;;;0.52;0.10;;;;;;;12.21;35.98;98929.66;5063491;28;20027;-68
2023/11/18 02:31:03;;;;;;;0.10;0.10;;;;;;;12.20;35.58;98938.47;5066441;28;20027;-69
2023/11/18 02:33:34;;;;;;;0.30;0.10;;;;;;;12.22;36.00;98936.53;5067560;27;20031;-69
2023/11/18 02:36:08;;;;;;;0.20;0.10;;;;;;;12.16;39.49;98945.75;5066693;28;21165;-69
2023/11/18 02:38:49;;;;;;;0.10;0.10;;;;;;;11.98;37.37;98937.91;5059070;28;20057;-70
2023/11/18 02:41:16;;;;;;;0.00;0.00;;;;;;;11.97;37.22;98936.25;5067354;28;20888;-69
2023/11/18 02:43:44;;;;;;;0.73;0.10;;;;;;;11.83;41.31;98900.25;5079407;28;20036;-70
2023/11/18 02:46:12;;;;;;;0.30;0.10;;;;;;;12.03;41.21;98927.03;5065356;28;20624;-68
2023/11/18 02:48:44;;;;;;;0.25;0.10;;;;;;;11.96;39.68;98921.59;5084398;28;20454;-67
2023/11/18 02:51:12;;;;;;;0.25;0.10;;;;;;;12.05;34.42;98915.50;5070920;28;20089;-67
2023/11/18 02:53:37;;;;;;;0.30;0.10;;;;;;;11.96;34.02;98868.66;5069459;28;20484;-67
2023/11/18 02:56:04;;;;;;;0.35;0.10;;;;;;;12.37;33.66;98898.53;5081955;28;20073;-68
2023/11/18 02:58:33;;;;;;;0.10;0.10;;;;;;;12.35;34.01;98884.81;5083003;28;20027;-70
2023/11/18 03:01:00;;;;;;;0.03;0.03;;;;;;;12.38;34.76;98892.38;5077268;28;20908;-69
2023/11/18 03:03:28;;;;;;;0.10;0.10;;;;;;;12.51;32.23;98886.75;5073871;28;21134;-69
2023/11/18 03:05:56;;;;;;;0.22;0.00;;;;;;;12.26;31.41;98837.00;5073098;28;20027;-68
2023/11/18 03:08:21;;;;;;;0.35;0.15;;;;;;;12.65;33.75;98875.00;5071945;28;20028;-70
2023/11/18 03:10:46;;;;;;;0.47;0.10;;;;;;;12.53;33.08;98873.56;5063955;28;20417;-69
2023/11/18 03:13:12;;;;;;;0.32;0.10;;;;;;;12.56;32.27;98862.81;5075962;28;20039;-69
2023/11/18 03:15:40;;;;;;;0.10;0.10;;;;;;;12.42;30.88;98831.09;5083844;28;20039;-74
2023/11/18 03:18:05;;;;;;;0.10;0.10;;;;;;;12.72;32.72;98849.09;5083313;28;20043;-67
2023/11/18 03:20:31;;;;;;;0.32;0.10;;;;;;;12.74;29.06;98853.19;5068881;28;20101;-68
2023/11/18 03:23:00;;;;;;;0.10;0.10;;;;;;;12.79;31.30;98845.72;5070997;28;20040;-68
2023/11/18 03:25:26;;;;;;;0.20;0.00;;;;;;;12.72;28.34;98815.16;5061000;28;20028;-68
2023/11/18 03:27:54;;;;;;;0.45;0.10;;;;;;;12.86;31.24;98844.13;5067868;28;20031;-67
2023/11/18 03:30:22;;;;;;;0.28;0.10;;;;;;;12.93;26.90;98849.56;5082910;28;20081;-69
2023/11/18 03:32:50;;;;;;;0.10;0.00;;;;;;;12.96;29.06;98857.09;5076371;28;20784;-67
2023/11/18 03:35:17;;;;;;;0.10;0.10;;;;;;;12.88;29.35;98855.22;5062975;28;20112;-69
2023/11/18 03:37:43;;;;;;;0.00;0.00;;;;;;;12.90;31.34;98860.28;5072736;28;20623;-66
2023/11/18 03:40:15;;;;;;;0.10;0.10;;;;;;;12.85;29.47;98866.00;5058331;28;20028;-69
2023/11/18 03:42:46;;;;;;;0.17;0.10;;;;;;;12.95;32.08;98865.06;5063767;28;20054;-67
2023/11/18 03:45:11;;;;;;;0.20;0.10;;;;;;;12.84;30.48;98855.69;5067843;28;20764;-69
2023/11/18 03:47:37;;;;;;;0.10;0.10;;;;;;;12.86;30.49;98866.81;5055884;28;20074;-68
2023/11/18 03:50:03;;;;;;;0.10;0.00;;;;;;;12.85;30.83;98871.22;5075799;28;20031;-65
2023/11/18 03:52:28;;;;;;;0.22;0.10;;;;;;;12.83;31.71;98836.63;5072530;28;20501;-68
2023/11/18 03:54:57;;;;;;;0.10;0.10;;;;;;;12.86;31.63;98872.84;5063482;28;20053;-70
2023/11/18 03:57:22;;;;;;;0.52;0.10;;;;;;;12.85;31.89;98852.09;5080530;28;20031;-69
2023/11/18 03:59:48;;;;;;;0.20;0.10;;;;;;;12.83;31.89;98856.66;5079446;28;20039;-69
2023/11/18 04:02:13;;;;;;;0.10;0.10;;;;;;;12.78;31.18;98848.50;5073633;28;20042;-69
2023/11/18 04:04:41;;;;;;;0.22;0.10;;;;;;;12.84;31.54;98859.13;5071586;28;20039;-68
2023/11/18 04:07:06;;;;;;;0.15;0.10;;;;;;;12.76;30.52;98866.06;5083655;28;20035;-69
2023/11/18 04:09:32;;;;;;;0.00;0.00;;;;;;;12.86;29.80;98859.78;5060236;28;20502;-68
2023/11/18 04:11:58;;;;;;;0.10;0.10;;;;;;;12.85;29.83;98866.00;5064222;28;20027;-68
2023/11/18 04:14:25;;;;;;;0.00;0.00;;;;;;;12.64;28.48;98821.97;5082436;28;20028;-73
2023/11/18 04:16:50;;;;;;;0.22;0.10;;;;;;;12.82;29.63;98886.34;5082118;28;20024;-68
2023/11/18 04:19:16;;;;;;;0.00;0.00;;;;;;;12.84;29.97;98877.38;5078936;28;20036;-69
2023/11/18 04:21:48;;;;;;;0.10;0.10;;;;;;;12.78;30.17;98880.63;5081066;28;20028;-69
2023/11/18 04:24:14;;;;;;;0.35;0.10;;;;;;;12.69;30.26;98877.13;5054637;28;20069;-69
2023/11/18 04:26:40;;;;;;;0.13;0.03;;;;;;;12.54;30.14;98828.25;5065362;28;20039;-67
2023/11/18 04:29:05;;;;;;;0.10;0.10;;;;;;;12.68;30.78;98852.00;5065696;28;20120;-69
2023/11/18 04:31:31;;;;;;;0.10;0.00;;;;;;;12.74;31.88;98875.84;5077631;28;20039;-69
2023/11/18 04:33:56;;;;;;;0.22;0.10;;;;;;;12.70;32.23;98870.09;5078221;28;20480;-70
2023/11/18 04:36:22;;;;;;;0.00;0.00;;;;;;;12.69;29.08;98869.31;5063087;28;20031;-70
2023/11/18 04:38:48;;;;;;;0.35;0.10;;;;;;;12.69;30.23;98873.72;5080726;28;20032;-70
2023/11/18 04:41:16;;;;;;;0.15;0.10;;;;;;;12.64;30.02;98873.34;5056647;28;20517;-67
2023/11/18 04:43:42;;;;;;;0.47;0.10;;;;;;;12.66;27.89;98859.16;5074248;28;20073;-68
2023/11/18 04:46:07;;;;;;;0.00;0.00;;;;;;;12.76;27.17;98866.91;5060842;28;20142;-68
2023/11/18 04:48:35;;;;;;;0.30;0.10;;;;;;;12.82;26.97;98868.91;5050758;28;20036;-68
2023/11/18 04:51:03;;;;;;;0.30;0.10;;;;;;;12.80;27.09;98868.25;5073252;28;20059;-69
2023/11/18 04:53:29;;;;;;;0.10;0.05;;;;;;;12.74;27.11;98879.28;5061571;28;20040;-70
2023/11/18 04:55:54;;;;;;;0.25;0.10;;;;;;;12.63;28.22;98882.97;5080221;28;20479;-68
2023/11/18 04:58:25;;;;;;;0.38;0.10;;;;;;;12.77;27.11;98888.59;5078881;28;20760;-71
2023/11/18 05:00:55;;;;;;;0.20;0.10;;;;;;;12.76;27.63;98879.97;5061074;28;20036;-68
2023/11/18 05:03:21;;;;;;;0.20;0.10;;;;;;;12.62;28.55;98880.50;5078976;28;20038;-68
2023/11/18 05:05:49;;;;;;;0.20;0.10;;;;;;;12.43;27.87;98878.84;5076371;28;20853;-70
2023/11/18 05:08:21;;;;;;;1.13;0.10;;;;;;;12.10;28.21;98850.72;5057874;28;20327;-71
2023/11/18 05:10:52;;;;;;;1.05;0.08;;;;;;;12.37;29.25;98895.91;5063406;28;20031;-69
2023/11/18 05:13:21;;;;;;;0.10;0.00;;;;;;;12.30;28.28;98898.31;5067161;28;20042;-69
2023/11/18 05:15:47;;;;;;;0.13;0.10;;;;;;;12.25;28.85;98891.91;5077541;28;20101;-69
2023/11/18 05:18:16;;;;;;;0.22;0.10;;;;;;;12.00;28.30;98868.19;5075396;28;20181;-68
2023/11/18 05:20:47;;;;;;;0.20;0.10;;;;;;;12.23;29.36;98918.13;5081177;28;20038;-68
2023/11/18 05:23:15;;;;;;;0.10;0.10;;;;;;;12.23;29.45;98897.28;5060109;28;20043;-69
2023/11/18 05:25:44;;;;;;;0.38;0.10;;;;;;;12.28;27.96;98904.63;5063935;28;20019;-67
2023/11/18 05:28:09;;;;;;;0.10;0.10;;;;;;;12.20;29.15;98908.00;5055620;28;20851;-69
2023/11/18 05:30:35;;;;;;;0.60;0.10;;;;;;;12.15;29.23;98897.19;5073327;28;20054;-68
2023/11/18 05:33:08;;;;;;;0.25;0.10;;;;;;;12.11;29.21;98895.84;5059943;28;20124;-70
2023/11/18 05:35:35;;;;;;;0.25;0.10;;;;;;;12.26;29.24;98898.75;5066356;28;20703;-69
2023/11/18 05:38:02;;;;;;;0.10;0.10;;;;;;;12.28;30.38;98922.88;5068617;28;20101;-70
2023/11/18 05:40:29;;;;;;;0.15;0.10;;;;;;;12.03;30.35;98914.84;5078611;28;20460;-69
2023/11/18 05:42:55;;;;;;;0.20;0.10;;;;;;;12.05;30.97;98922.50;5082761;28;20031;-70
2023/11/18 05:45:44;;;;;;;0.20;0.10;;;;;;;12.00;31.83;98917.72;5076593;28;20063;-70
2023/11/18 05:48:14;;;;;;;0.38;0.10;;;;;;;11.92;32.86;98922.84;5079837;28;20043;-67
2023/11/18 05:50:44;;;;;;;0.20;0.00;;;;;;;11.68;32.92;98907.69;5065172;28;20733;-69
2023/11/18 05:53:09;;;;;;;0.13;0.10;;;;;;;11.43;33.67;98911.81;5066791;28;20136;-66
2023/11/18 05:55:34;;;;;;;0.35;0.10;;;;;;;11.44;31.91;98906.44;5063301;28;20467;-69
2023/11/18 05:58:00;;;;;;;0.20;0.10;;;;;;;11.15;32.14;98873.53;5077471;28;20028;-71
2023/11/18 06:00:26;;;;;;;0.45;0.10;;;;;;;11.38;31.98;98891.38;5064384;28;20038;-69
2023/11/18 06:02:51;;;;;;;0.77;0.13;;;;;;;11.23;31.02;98872.00;5078999;28;20036;-69
2023/11/18 06:05:19;;;;;;;0.10;0.10;;;;;;;11.41;31.46;98903.28;5080330;28;20101;-68
2023/11/18 06:07:47;;;;;;;0.38;0.10;;;;;;;11.18;31.23;98867.22;5070198;28;20039;-68
2023/11/18 06:10:13;;;;;;;0.32;0.10;;;;;;;11.29;31.49;98924.28;5101737;27;20042;-68
2023/11/18 06:12:40;;;;;;;0.63;0.10;;;;;;;11.30;31.61;98915.53;5083839;28;20051;-68
2023/11/18 06:15:08;;;;;;;0.10;0.10;;;;;;;11.27;31.37;98925.41;5086606;28;20084;-69
2023/11/18 06:17:37;;;;;;;0.32;0.10;;;;;;;11.16;31.33;98901.19;5089563;28;20771;-68
2023/11/18 06:20:06;;;;;;;0.20;0.10;;;;;;;11.35;30.72;98926.34;5082486;28;20027;-67
2023/11/18 06:22:36;;;;;;;0.43;0.15;;;;;;;11.08;31.46;98895.88;5073543;28;20092;-65
2023/11/18 06:25:02;;;;;;;3.13;0.20;;;;;;;11.29;31.14;98929.50;5081164;28;20024;-67
2023/11/18 06:27:28;;;;;;;0.57;0.20;;;;;;;11.30;31.10;98925.13;5087185;28;20027;-69
2023/11/18 06:29:54;;;;;;;0.10;0.10;;;;;;;11.33;30.37;98949.09;5084035;28;20934;-66
2023/11/18 06:32:20;;;;;;;0.20;0.10;;;;;;;11.45;30.69;98939.31;5067167;28;20537;-66
2023/11/18 06:34:46;;;;;;;0.35;0.10;;;;;;;11.29;30.83;98952.13;5075468;27;20039;-68
2023/11/18 06:37:11;;;;;;;0.52;0.20;;;;;;;11.24;29.99;98905.69;5086391;27;20908;-67
2023/11/18 06:39:43;;;;;;;0.10;0.00;;;;;;;11.32;30.68;98949.25;5076569;27;20031;-68
2023/11/18 06:42:11;;;;;;;0.30;0.10;;;;;;;11.33;30.64;98956.06;5082824;28;20027;-68
2023/11/18 06:44:41;;;;;;;0.00;0.00;;;;;;;11.37;30.88;98962.63;5073900;28;20164;-69
2023/11/18 06:47:06;;;;;;;0.45;0.13;;;;;;;11.37;29.94;98961.81;5096614;28;20038;-71
2023/11/18 06:49:35;;;;;;;0.00;0.00;;;;;;;11.24;30.78;98960.34;5078171;28;20023;-69
2023/11/18 06:52:03;;;;;;;0.22;0.10;;;;;;;11.27;30.92;98974.88;5075432;28;20063;-68
2023/11/18 06:54:34;;;;;;;0.55;0.10;;;;;;;11.26;31.07;98976.66;5078893;28;20056;-69
2023/11/18 06:57:03;;;;;;;0.10;0.10;;;;;;;10.96;30.63;98949.84;5076797;28;20040;-68
2023/11/18 06:59:30;;;;;;;0.73;0.20;;;;;;;11.20;30.56;99010.22;5075481;28;20027;-68
2023/11/18 07:01:56;;;;;;;0.22;0.10;;;;;;;11.06;30.90;98973.28;5080713;28;20055;-69
2023/11/18 07:04:23;;;;;;;1.10;0.10;;;;;;;11.29;30.69;98999.78;5076159;28;20035;-72
2023/11/18 07:06:51;;;;;;;0.28;0.10;;;;;;;11.30;30.98;99021.47;5091672;28;20587;-67
2023/11/18 07:09:17;;;;;;;0.30;0.10;;;;;;;11.00;30.17;98983.41;5090254;28;20090;-69
2023/11/18 07:11:43;;;;;;;0.10;0.10;;;;;;;11.25;29.57;99005.44;5074276;28;20754;-68
2023/11/18 07:14:12;;;;;;;0.55;0.20;;;;;;;11.25;28.70;99006.25;5093061;28;20100;-68
2023/11/18 07:16:39;;;;;;;0.35;0.10;;;;;;;11.29;28.91;99012.81;5071128;28;20616;-67
2023/11/18 07:19:06;;;;;;;0.10;0.10;;;;;;;11.15;29.21;98985.44;5090326;28;20114;-66
2023/11/18 07:21:33;;;;;;;0.75;0.17;;;;;;;11.37;28.81;99026.91;5090892;28;20658;-66
2023/11/18 07:23:59;;;;;;;0.10;0.10;;;;;;;11.35;28.56;99022.69;5072968;28;20042;-67
2023/11/18 07:26:26;;;;;;;0.28;0.10;;;;;;;11.31;28.99;99021.28;5073329;28;20039;-65
2023/11/18 07:28:52;;;;;;;0.63;0.20;;;;;;;11.26;29.74;99017.47;5073496;28;20024;-66
2023/11/18 07:31:18;;;;;;;0.30;0.10;;;;;;;11.11;29.75;98986.66;5088589;27;20026;-68
2023/11/18 07:33:48;;;;;;;1.38;0.20;;;;;;;11.20;29.93;99024.06;5075526;27;20039;-68
2023/11/18 07:36:19;;;;;;;0.73;0.20;;;;;;;11.35;29.78;99027.03;5100548;27;20393;-68
2023/11/18 07:38:47;;;;;;;0.32;0.17;;;;;;;11.34;29.83;99022.81;5073850;28;20833;-68
2023/11/18 07:41:31;;;;;;;0.75;0.20;;;;;;;11.25;30.04;99018.44;5070122;28;20131;-68
2023/11/18 07:43:56;;;;;;;0.17;0.17;;;;;;;11.29;29.72;99020.63;5089730;28;20102;-67
2023/11/18 07:46:22;;;;;;;0.20;0.15;;;;;;;11.26;29.56;99020.91;5093539;28;20036;-67
2023/11/18 07:48:51;;;;;;;0.93;0.20;;;;;;;11.20;30.15;99029.25;5071803;27;20666;-67
2023/11/18 07:51:24;;;;;;;0.82;0.20;;;;;;;11.07;29.38;99011.31;5085178;28;20047;-68
2023/11/18 07:53:52;;;;;;;0.65;0.20;;;;;;;11.30;29.40;99035.28;5083540;28;20155;-66
2023/11/18 07:56:18;;;;;;;1.40;0.20;;;;;;;11.01;29.55;98998.06;5077149;28;20035;-67
2023/11/18 07:58:46;;;;;;;0.50;0.20;;;;;;;11.31;29.59;99039.53;5080869;27;20040;-68
2023/11/18 08:01:12;;;;;;;0.10;0.10;;;;;;;11.26;29.11;99033.09;5073468;27;20035;-68
2023/11/18 08:03:41;;;;;;;2.55;0.88;;;;;;;11.19;29.86;99040.66;5067680;28;20036;-68
2023/11/18 08:06:07;;;;;;;1.67;0.45;;;;;;;10.78;30.78;99003.53;5090486;27;20031;-69
2023/11/18 08:08:39;;;;;;;0.52;0.20;;;;;;;11.12;30.21;99050.78;5097287;27;21172;-67
2023/11/18 08:11:12;;;;;;;0.10;0.10;;;;;;;11.17;28.40;99047.78;5093439;28;20783;-68
2023/11/18 08:13:38;;;;;;;0.63;0.20;;;;;;;11.26;28.56;99046.94;5076031;28;20650;-67
2023/11/18 08:16:04;;;;;;;5.18;1.52;;;;;;;11.25;29.36;99052.28;5078390;28;20027;-68
2023/11/18 08:18:31;;;;;;;0.52;0.20;;;;;;;11.25;28.77;99057.50;5092706;28;20031;-68
2023/11/18 08:20:57;;;;;;;1.52;0.30;;;;;;;11.11;28.10;99036.09;5074397;28;20158;-68
2023/11/18 08:23:23;;;;;;;5.80;2.08;;;;;;;11.32;28.97;99066.41;5075716;28;20031;-68
2023/11/18 08:25:50;;;;;;;12.90;5.60;;;;;;;11.35;29.14;99077.34;5095499;28;20035;-68
2023/11/18 08:28:16;;;;;;;16.58;6.70;;;;;;;11.23;30.15;99088.84;5078904;27;20457;-67
2023/11/18 08:30:43;;;;;;;11.18;4.25;;;;;;;11.10;31.16;99085.72;5075769;28;20024;-68
2023/11/18 08:33:09;;;;;;;4.03;1.15;;;;;;;10.93;31.40;99054.22;5096135;28;20027;-68
2023/11/18 08:35:37;;;;;;;9.05;3.70;;;;;;;11.06;30.33;99095.56;5090959;28;20030;-67
2023/11/18 08:38:04;;;;;;;9.20;3.63;;;;;;;11.04;31.32;99086.25;5076537;28;20019;-67
2023/11/18 08:40:29;;;;;;;4.55;1.30;;;;;;;10.91;31.95;99079.50;5091535;28;20027;-68
2023/11/18 08:42:57;;;;;;;4.00;1.30;;;;;;;10.91;31.78;99076.91;5093283;28;20137;-67
2023/11/18 08:45:29;;;;;;;6.00;2.80;;;;;;;10.90;32.08;99077.06;5081282;28;20101;-69
2023/11/18 08:47:58;;;;;;;3.60;0.90;;;;;;;10.74;32.12;99054.19;5072897;28;20065;-66
2023/11/18 08:50:27;;;;;;;2.80;0.90;;;;;;;10.92;33.06;99078.56;5088516;28;20181;-68
2023/11/18 08:52:57;;;;;;;3.92;1.23;;;;;;;10.94;34.10;99074.03;5085128;28;20075;-69
2023/11/18 08:55:39;;;;;;;4.10;0.70;;;;;;;10.61;33.09;99027.63;5092460;28;20018;-70
2023/11/18 08:58:19;;;;;;;2.35;0.70;;;;;;;10.58;32.79;99039.91;5076323;28;20024;-68
2023/11/18 09:00:52;;;;;;;1.52;0.40;;;;;;;10.60;35.22;99067.56;5076057;28;20038;-68
2023/11/18 09:03:42;;;;;;;2.28;0.60;;;;;;;10.66;32.89;99075.66;5089604;28;21339;-69
2023/11/18 09:06:19;;;;;;;0.65;0.30;;;;;;;10.69;32.51;99079.75;5075812;28;20706;-68
2023/11/18 09:08:46;;;;;;;1.42;0.40;;;;;;;10.53;32.45;99051.66;5091914;28;20034;-68
2023/11/18 09:11:16;;;;;;;0.93;0.38;;;;;;;10.76;32.22;99086.06;5067117;28;20084;-69
2023/11/18 09:13:53;;;;;;;1.08;0.30;;;;;;;10.85;32.18;99090.47;5073886;28;20568;-68
2023/11/18 09:16:22;;;;;;;1.52;0.50;;;;;;;10.82;31.49;99085.53;5066343;28;20081;-67
2023/11/18 09:18:48;;;;;;;1.50;0.50;;;;;;;10.85;31.89;99093.06;5073817;28;20040;-67
2023/11/18 09:21:19;;;;;;;1.25;0.40;;;;;;;10.91;30.95;99084.72;5086408;28;20699;-69
2023/11/18 09:23:48;;;;;;;2.60;0.60;;;;;;;10.91;33.87;99073.50;5072093;28;20043;-68
2023/11/18 09:26:16;;;;;;;1.58;0.40;;;;;;;11.04;31.15;99089.66;5076497;28;20827;-67
2023/11/18 09:28:42;;;;;;;2.38;0.70;;;;;;;10.98;34.77;99092.00;5091156;28;20106;-70
2023/11/18 09:31:12;;;;;;;2.20;0.60;;;;;;;10.93;34.35;99087.19;5067516;28;20040;-67
2023/11/18 09:33:46;;;;;;;1.85;0.50;;;;;;;10.88;35.95;99084.16;5090214;28;20036;-70
2023/11/18 09:36:12;;;;;;;2.28;0.50;;;;;;;10.88;37.00;99094.56;5074026;28;20035;-70
2023/11/18 09:38:41;;;;;;;1.75;0.45;;;;;;;10.62;36.21;99047.44;5071386;28;20028;-66
2023/11/18 09:41:11;;;;;;;0.38;0.20;;;;;;;10.90;31.95;99090.91;5066300;28;20100;-69
2023/11/18 09:44:03;;;;;;;1.23;0.30;;;;;;;10.96;31.87;99095.53;5077707;28;20031;-68
2023/11/18 09:46:32;;;;;;;1.17;0.40;;;;;;;11.13;31.76;99090.63;5088833;28;20822;-69
2023/11/18 09:49:33;;;;;;;0.60;0.30;;;;;;;11.29;32.27;99088.31;5090781;28;20023;-68
2023/11/18 09:52:00;;;;;;;0.75;0.22;;;;;;;11.44;31.26;99086.09;5072388;28;20123;-66
2023/11/18 09:54:52;;;;;;;1.08;0.30;;;;;;;11.58;33.15;99089.25;5090899;28;20058;-68
2023/11/18 09:57:39;;;;;;;0.57;0.20;;;;;;;11.68;30.64;99077.84;5089502;28;20032;-66
2023/11/18 10:00:19;;;;;;;1.45;0.30;;;;;;;11.76;29.99;99084.16;5088945;28;20101;-67
2023/11/18 10:02:52;;;;;;;2.05;0.32;;;;;;;11.75;29.46;99067.69;5087455;28;20039;-68
2023/11/18 10:05:26;;;;;;;1.65;0.40;;;;;;;11.66;29.77;99071.97;5091665;28;20038;-68
2023/11/18 10:07:52;;;;;;;0.63;0.20;;;;;;;11.79;29.34;99066.47;5088515;28;20024;-71
2023/11/18 10:10:20;;;;;;;0.98;0.30;;;;;;;11.94;29.63;99061.63;5076093;28;20039;-67
2023/11/18 10:12:57;;;;;;;0.75;0.25;;;;;;;12.06;28.02;99054.44;5089607;28;20032;-67
2023/11/18 10:15:26;;;;;;;1.70;0.20;;;;;;;12.13;29.58;99052.09;5071507;28;21138;-70
2023/11/18 10:20:51;;;;;;;1.13;0.35;;;;;;;11.92;29.60;99027.09;5069263;28;20046;-69
2023/11/18 10:23:20;;;;;;;0.95;0.20;;;;;;;12.19;27.18;99056.72;5075983;28;20060;-66
2023/11/18 10:25:49;;;;;;;1.58;0.30;;;;;;;12.38;27.38;99050.63;5070779;28;20050;-67
2023/11/18 10:28:36;;;;;;;1.25;0.40;;;;;;;12.47;27.98;99045.34;5089812;28;20043;-67
2023/11/18 10:31:09;;;;;;;2.00;0.38;;;;;;;12.64;27.16;99051.53;5083273;28;20379;-68
2023/11/18 10:33:41;;;;;;;6.25;0.70;;;;;;;12.77;27.46;99058.19;5084688;28;20043;-69
2023/11/18 10:36:22;;;;;;;1.02;0.30;;;;;;;12.79;26.98;99064.91;5066648;28;20019;-66
2023/11/18 10:38:49;;;;;;;1.13;0.30;;;;;;;12.85;27.15;99069.53;5082561;28;20032;-70
2023/11/18 10:41:16;;;;;;;2.28;0.70;;;;;;;12.74;25.88;99035.00;5087737;28;20027;-68
2023/11/18 10:43:45;;;;;;;0.57;0.30;;;;;;;13.01;25.92;99071.47;5073285;28;20035;-68
2023/11/18 10:46:16;;;;;;;2.17;0.70;;;;;;;13.12;26.44;99069.63;5090020;28;20055;-68
2023/11/18 10:48:43;;;;;;;1.10;0.47;;;;;;;13.23;26.48;99075.44;5081966;28;20042;-69
2023/11/18 10:51:13;;;;;;;1.08;0.25;;;;;;;13.17;25.42;99068.19;5075931;28;20024;-68
2023/11/18 10:53:46;;;;;;;0.77;0.28;;;;;;;13.30;25.66;99059.97;5085756;28;20110;-67
2023/11/18 10:56:32;;;;;;;1.48;0.40;;;;;;;13.12;25.24;99028.66;5090696;28;20093;-68
2023/11/18 10:59:07;;;;;;;0.52;0.20;;;;;;;13.34;25.21;99056.13;5089343;28;20028;-67
2023/11/18 11:01:48;;;;;;;0.63;0.20;;;;;;;13.05;25.76;99018.00;5071817;28;20032;-67
2023/11/18 11:04:20;;;;;;;1.67;0.40;;;;;;;13.38;25.23;99057.47;5079665;28;20076;-68
2023/11/18 11:06:52;;;;;;;0.57;0.30;;;;;;;13.52;25.84;99061.31;5069716;28;20035;-66
2023/11/18 11:09:27;;;;;;;1.02;0.30;;;;;;;13.57;25.61;99053.84;5075703;28;20057;-69
2023/11/18 11:11:56;;;;;;;0.73;0.20;;;;;;;13.61;24.55;99025.63;5091155;28;20110;-68
2023/11/18 11:14:35;;;;;;;0.47;0.20;;;;;;;13.57;24.56;99019.88;5069568;28;20032;-67
2023/11/18 11:17:10;;;;;;;1.50;0.40;;;;;;;13.60;25.17;99035.25;5081608;28;20061;-63
2023/11/18 11:19:48;;;;;;;1.20;0.38;;;;;;;13.66;25.36;99020.75;5088632;28;20300;-69
2023/11/18 11:22:20;;;;;;;0.90;0.30;;;;;;;13.69;25.62;99017.00;5073568;28;20043;-70
2023/11/18 11:25:02;;;;;;;1.52;0.40;;;;;;;13.76;26.35;99016.25;5090838;28;20557;-67
2023/11/18 11:27:49;;;;;;;2.00;0.70;;;;;;;-145.70;100.00;63560.63;5085235;28;20054;-67
2023/11/18 11:30:31;;;;;;;1.77;0.50;;;;;;;-145.70;100.00;63560.63;5072273;28;20093;-66
2023/11/18 11:33:27;;;;;;;2.38;0.60;;;;;;;-145.70;100.00;63560.63;5074807;28;20036;-68
2023/11/18 11:36:02;;;;;;;0.93;0.30;;;;;;;-145.70;100.00;63560.63;5067911;28;20683;-69
2023/11/18 11:38:28;;;;;;;0.93;0.30;;;;;;;-145.70;100.00;63560.63;5076806;28;20035;-67
2023/11/18 11:40:57;;;;;;;1.45;0.40;;;;;;;-145.70;100.00;63560.63;5073492;28;20034;-67
2023/11/18 11:43:27;;;;;;;1.60;0.30;;;;;;;-145.70;100.00;63560.63;5089634;28;20593;-69